createdAt,value
2023-05-05T00:00:00.434Z,2545.00
2023-05-05T00:01:00.418Z,2544.00
2023-05-05T00:02:00.425Z,2533.00
2023-05-05T00:03:00.491Z,2545.00
2023-05-05T00:04:00.456Z,2530.00
2023-05-05T00:05:00.397Z,2539.00
2023-05-05T00:06:00.370Z,2527.00
2023-05-05T00:07:00.370Z,2538.00
2023-05-05T00:08:00.357Z,2537.00
2023-05-05T00:09:00.389Z,2523.00
2023-05-05T00:10:00.358Z,2514.00
2023-05-05T00:11:00.382Z,2519.00
2023-05-05T00:12:00.344Z,2507.00
2023-05-05T00:13:00.347Z,2515.00
2023-05-05T00:14:00.324Z,2522.00
2023-05-05T00:15:00.333Z,2510.00
2023-05-05T00:16:00.339Z,2517.00
2023-05-05T00:17:00.391Z,2514.00
2023-05-05T00:18:00.378Z,2490.00
2023-05-05T00:19:00.313Z,2495.00
2023-05-05T00:20:00.314Z,2491.00
2023-05-05T00:21:00.296Z,2492.00
2023-05-05T00:22:00.281Z,2490.00
2023-05-05T00:23:00.339Z,2490.00
2023-05-05T00:24:00.308Z,2489.00
2023-05-05T00:25:00.247Z,2497.00
2023-05-05T00:26:00.258Z,2491.00
2023-05-05T00:27:00.231Z,2474.00
2023-05-05T00:28:00.231Z,2479.00
2023-05-05T00:29:00.285Z,2479.00
2023-05-05T00:30:00.241Z,2474.00
2023-05-05T00:31:00.302Z,2483.00
2023-05-05T00:32:00.197Z,2470.00
2023-05-05T00:33:00.262Z,2460.00
2023-05-05T00:34:00.232Z,2473.00
2023-05-05T00:35:00.182Z,2470.00
2023-05-05T00:36:00.227Z,2459.00
2023-05-05T00:37:00.214Z,2459.00
2023-05-05T00:38:00.192Z,2460.00
2023-05-05T00:39:00.192Z,2448.00
2023-05-05T00:40:00.180Z,2458.00
2023-05-05T00:41:00.270Z,2448.00
2023-05-05T00:42:00.275Z,2427.00
2023-05-05T00:43:00.322Z,2439.00
2023-05-05T00:44:00.381Z,2443.00
2023-05-05T00:45:00.438Z,2421.00
2023-05-05T00:46:00.452Z,2442.00
2023-05-05T00:47:00.508Z,2434.00
2023-05-05T00:48:00.651Z,2433.00
2023-05-05T00:49:00.594Z,2416.00
2023-05-05T00:50:00.686Z,2428.00
2023-05-05T00:51:00.687Z,2428.00
2023-05-05T00:52:00.753Z,2419.00
2023-05-05T00:53:00.788Z,2417.00
2023-05-05T00:54:00.850Z,2410.00
2023-05-05T00:55:00.896Z,2407.00
2023-05-05T00:56:00.993Z,2407.00
2023-05-05T00:57:00.994Z,2418.00
2023-05-05T00:58:01.052Z,2404.00
2023-05-05T00:59:01.123Z,2397.00
2023-05-05T01:00:01.157Z,2395.00
2023-05-05T01:01:01.174Z,2389.00
2023-05-05T01:02:01.247Z,2392.00
2023-05-05T01:03:01.482Z,2397.00
2023-05-05T01:04:01.400Z,2392.00
2023-05-05T01:05:01.412Z,2393.00
2023-05-05T01:06:01.430Z,2385.00
2023-05-05T01:07:01.478Z,2382.00
2023-05-05T01:08:01.527Z,2380.00
2023-05-05T01:09:01.614Z,2374.00
2023-05-05T01:10:15.639Z,2392.00
2023-05-05T01:11:02.636Z,2393.00
2023-05-05T01:12:01.618Z,2386.00
2023-05-05T01:13:01.623Z,2392.00
2023-05-05T01:14:01.578Z,2372.00
2023-05-05T01:15:01.614Z,2374.00
2023-05-05T01:16:01.600Z,2373.00
2023-05-05T01:17:01.544Z,2380.00
2023-05-05T01:18:01.625Z,2370.00
2023-05-05T01:19:01.562Z,2377.00
2023-05-05T01:20:01.570Z,2368.00
2023-05-05T01:21:01.576Z,2369.00
2023-05-05T01:22:01.615Z,2363.00
2023-05-05T01:23:01.641Z,2359.00
2023-05-05T01:24:01.686Z,2352.00
2023-05-05T01:25:01.842Z,2359.00
2023-05-05T01:26:01.785Z,2339.00
2023-05-05T01:27:01.827Z,2351.00
2023-05-05T01:28:01.921Z,2344.00
2023-05-05T01:29:01.976Z,2340.00
2023-05-05T01:30:02.032Z,2351.00
2023-05-05T01:31:02.040Z,2345.00
2023-05-05T01:32:02.135Z,2351.00
2023-05-05T01:33:02.179Z,2332.00
2023-05-05T01:34:02.221Z,2327.00
2023-05-05T01:35:02.248Z,2336.00
2023-05-05T01:36:02.306Z,2329.00
2023-05-05T01:37:02.375Z,2327.00
2023-05-05T01:38:02.415Z,2331.00
2023-05-05T01:39:02.487Z,2328.00
2023-05-05T01:40:02.541Z,2315.00
2023-05-05T01:41:02.572Z,2314.00
2023-05-05T01:42:02.636Z,2315.00
2023-05-05T01:43:02.709Z,2312.00
2023-05-05T01:44:02.731Z,2309.00
2023-05-05T01:45:02.803Z,2308.00
2023-05-05T01:46:02.881Z,2307.00
2023-05-05T01:47:02.915Z,2308.00
2023-05-05T01:48:03.438Z,2306.00
2023-05-05T01:49:03.013Z,2302.00
2023-05-05T01:50:03.084Z,2301.00
2023-05-05T01:51:03.186Z,2293.00
2023-05-05T01:52:03.216Z,2290.00
2023-05-05T01:53:03.328Z,2292.00
2023-05-05T01:54:03.315Z,2286.00
2023-05-05T01:55:03.350Z,2286.00
2023-05-05T01:56:03.380Z,2289.00
2023-05-05T01:57:03.446Z,2292.00
2023-05-05T01:58:03.515Z,2278.00
2023-05-05T01:59:03.545Z,2268.00
2023-05-05T02:00:03.632Z,2282.00
2023-05-05T02:01:03.750Z,2281.00
2023-05-05T02:02:03.777Z,2261.00
2023-05-05T02:03:03.781Z,2277.00
2023-05-05T02:04:03.820Z,2267.00
2023-05-05T02:05:03.870Z,2263.00
2023-05-05T02:06:03.901Z,2266.00
2023-05-05T02:07:03.931Z,2260.00
2023-05-05T02:08:04.393Z,2259.00
2023-05-05T02:09:04.053Z,2248.00
2023-05-05T02:10:04.129Z,2249.00
2023-05-05T02:11:04.129Z,2248.00
2023-05-05T02:12:04.202Z,2248.00
2023-05-05T02:13:04.392Z,2240.00
2023-05-05T02:14:04.347Z,2243.00
2023-05-05T02:15:04.368Z,2239.00
2023-05-05T02:16:04.425Z,2236.00
2023-05-05T02:17:04.470Z,2227.00
2023-05-05T02:18:04.552Z,2238.00
2023-05-05T02:19:04.544Z,2227.00
2023-05-05T02:20:04.647Z,2234.00
2023-05-05T02:21:04.667Z,2216.00
2023-05-05T02:22:04.705Z,2221.00
2023-05-05T02:23:04.771Z,2214.00
2023-05-05T02:24:04.808Z,2216.00
2023-05-05T02:25:04.891Z,2220.00
2023-05-05T02:26:04.944Z,2215.00
2023-05-05T02:27:04.980Z,2226.00
2023-05-05T02:28:05.036Z,2212.00
2023-05-05T02:29:05.049Z,2210.00
2023-05-05T02:30:05.236Z,2214.00
2023-05-05T02:31:05.202Z,2203.00
2023-05-05T02:32:05.212Z,2197.00
2023-05-05T02:33:05.465Z,2200.00
2023-05-05T02:34:05.337Z,2205.00
2023-05-05T02:35:05.370Z,2197.00
2023-05-05T02:36:05.411Z,2195.00
2023-05-05T02:37:05.484Z,2195.00
2023-05-05T02:38:05.546Z,2178.00
2023-05-05T02:39:05.563Z,2185.00
2023-05-05T02:40:05.718Z,2189.00
2023-05-05T02:41:05.686Z,2184.00
2023-05-05T02:42:05.695Z,2184.00
2023-05-05T02:43:05.803Z,2178.00
2023-05-05T02:44:05.812Z,2184.00
2023-05-05T02:45:05.859Z,2187.00
2023-05-05T02:46:05.953Z,2167.00
2023-05-05T02:47:06.894Z,2185.00
2023-05-05T02:48:06.458Z,2178.00
2023-05-05T02:49:06.059Z,2172.00
2023-05-05T02:50:06.245Z,2178.00
2023-05-05T02:51:06.178Z,2175.00
2023-05-05T02:52:06.212Z,2178.00
2023-05-05T02:53:06.234Z,2167.00
2023-05-05T02:54:06.331Z,2169.00
2023-05-05T02:55:06.414Z,2161.00
2023-05-05T02:56:06.420Z,2172.00
2023-05-05T02:57:06.480Z,2171.00
2023-05-05T02:58:06.515Z,2170.00
2023-05-05T02:59:06.594Z,2159.00
2023-05-05T03:00:06.873Z,2165.00
2023-05-05T03:01:06.743Z,2161.00
2023-05-05T03:02:06.726Z,2163.00
2023-05-05T03:03:06.895Z,2160.00
2023-05-05T03:04:06.859Z,2157.00
2023-05-05T03:05:06.869Z,2148.00
2023-05-05T03:06:06.934Z,2139.00
2023-05-05T03:07:06.971Z,2143.00
2023-05-05T03:08:07.035Z,2151.00
2023-05-05T03:09:07.078Z,2142.00
2023-05-05T03:10:07.425Z,2144.00
2023-05-05T03:11:07.218Z,2143.00
2023-05-05T03:12:07.276Z,2139.00
2023-05-05T03:13:07.437Z,2145.00
2023-05-05T03:14:07.438Z,2146.00
2023-05-05T03:15:07.475Z,2133.00
2023-05-05T03:16:07.526Z,2121.00
2023-05-05T03:17:07.560Z,2123.00
2023-05-05T03:18:07.667Z,2134.00
2023-05-05T03:19:07.685Z,2132.00
2023-05-05T03:20:07.954Z,2126.00
2023-05-05T03:21:07.820Z,2117.00
2023-05-05T03:22:07.910Z,2119.00
2023-05-05T03:23:07.955Z,2116.00
2023-05-05T03:24:08.016Z,2119.00
2023-05-05T03:25:08.045Z,2109.00
2023-05-05T03:26:08.138Z,2107.00
2023-05-05T03:27:08.190Z,2110.00
2023-05-05T03:28:08.294Z,2112.00
2023-05-05T03:29:08.306Z,2104.00
2023-05-05T03:30:08.608Z,2109.00
2023-05-05T03:31:08.478Z,2097.00
2023-05-05T03:32:08.571Z,2092.00
2023-05-05T03:33:08.637Z,2092.00
2023-05-05T03:34:08.650Z,2104.00
2023-05-05T03:35:08.693Z,2090.00
2023-05-05T03:36:08.767Z,2092.00
2023-05-05T03:37:08.826Z,2080.00
2023-05-05T03:38:08.867Z,2088.00
2023-05-05T03:39:08.941Z,2079.00
2023-05-05T03:40:09.206Z,2074.00
2023-05-05T03:41:09.044Z,2071.00
2023-05-05T03:42:09.097Z,2082.00
2023-05-05T03:43:09.184Z,2075.00
2023-05-05T03:44:09.231Z,2070.00
2023-05-05T03:45:09.365Z,2077.00
2023-05-05T03:46:09.382Z,2077.00
2023-05-05T03:47:09.465Z,2071.00
2023-05-05T03:48:09.640Z,2074.00
2023-05-05T03:49:09.546Z,2060.00
2023-05-05T03:50:09.736Z,2049.00
2023-05-05T03:51:09.672Z,2061.00
2023-05-05T03:52:09.699Z,2058.00
2023-05-05T03:53:09.943Z,2064.00
2023-05-05T03:54:09.857Z,2044.00
2023-05-05T03:55:09.898Z,2055.00
2023-05-05T03:56:10.035Z,2046.00
2023-05-05T03:57:10.059Z,2041.00
2023-05-05T03:58:10.047Z,2048.00
2023-05-05T03:59:10.094Z,2042.00
2023-05-05T04:00:10.173Z,2037.00
2023-05-05T04:01:10.225Z,2033.00
2023-05-05T04:02:10.281Z,2033.00
2023-05-05T04:03:10.460Z,2029.00
2023-05-05T04:04:10.391Z,2030.00
2023-05-05T04:05:10.402Z,2035.00
2023-05-05T04:06:10.473Z,2029.00
2023-05-05T04:07:10.477Z,2012.00
2023-05-05T04:08:10.943Z,2038.00
2023-05-05T04:09:10.575Z,2039.00
2023-05-05T04:10:10.696Z,2012.00
2023-05-05T04:11:10.657Z,2020.00
2023-05-05T04:12:10.732Z,2016.00
2023-05-05T04:13:10.954Z,2012.00
2023-05-05T04:14:10.855Z,2015.00
2023-05-05T04:15:10.897Z,2011.00
2023-05-05T04:16:11.091Z,2009.00
2023-05-05T04:17:11.045Z,2003.00
2023-05-05T04:18:11.141Z,1996.00
2023-05-05T04:19:11.172Z,1998.00
2023-05-05T04:20:11.288Z,1999.00
2023-05-05T04:21:11.291Z,1998.00
2023-05-05T04:22:11.341Z,2002.00
2023-05-05T04:23:11.390Z,1994.00
2023-05-05T04:24:11.395Z,1988.00
2023-05-05T04:25:11.435Z,1987.00
2023-05-05T04:26:11.523Z,1995.00
2023-05-05T04:27:11.528Z,1989.00
2023-05-05T04:28:11.639Z,1980.00
2023-05-05T04:29:11.640Z,1989.00
2023-05-05T04:30:11.771Z,1984.00
2023-05-05T04:31:11.954Z,1984.00
2023-05-05T04:32:11.974Z,1984.00
2023-05-05T04:33:11.969Z,1969.00
2023-05-05T04:34:12.048Z,1973.00
2023-05-05T04:35:12.116Z,1975.00
2023-05-05T04:36:12.150Z,1968.00
2023-05-05T04:37:12.233Z,1980.00
2023-05-05T04:38:12.278Z,1964.00
2023-05-05T04:39:12.337Z,1968.00
2023-05-05T04:40:12.363Z,1959.00
2023-05-05T04:41:12.415Z,1956.00
2023-05-05T04:42:12.483Z,1963.00
2023-05-05T04:43:12.552Z,1960.00
2023-05-05T04:44:12.555Z,1950.00
2023-05-05T04:45:12.566Z,1956.00
2023-05-05T04:46:12.628Z,1962.00
2023-05-05T04:47:14.569Z,1952.00
2023-05-05T04:48:12.720Z,1948.00
2023-05-05T04:49:12.738Z,1945.00
2023-05-05T04:50:12.767Z,1940.00
2023-05-05T04:51:12.818Z,1939.00
2023-05-05T04:52:12.866Z,1937.00
2023-05-05T04:53:12.921Z,1929.00
2023-05-05T04:54:12.958Z,1923.00
2023-05-05T04:55:12.940Z,1897.00
2023-05-05T04:56:12.995Z,1891.00
2023-05-05T04:57:13.009Z,1888.00
2023-05-05T04:58:13.039Z,1872.00
2023-05-05T04:59:13.024Z,1849.00
2023-05-05T05:00:13.069Z,1834.00
2023-05-05T05:01:13.002Z,1826.00
2023-05-05T05:02:13.139Z,1810.00
2023-05-05T05:03:13.120Z,1798.00
2023-05-05T05:04:13.102Z,1798.00
2023-05-05T05:05:13.119Z,1786.00
2023-05-05T05:06:13.103Z,1781.00
2023-05-05T05:07:13.103Z,1768.00
2023-05-05T05:08:13.109Z,1750.00
2023-05-05T05:09:13.123Z,1751.00
2023-05-05T05:10:13.052Z,1735.00
2023-05-05T05:11:13.092Z,1736.00
2023-05-05T05:12:13.102Z,1726.00
2023-05-05T05:13:13.276Z,1723.00
2023-05-05T05:14:13.118Z,1712.00
2023-05-05T05:15:13.090Z,1712.00
2023-05-05T05:16:13.128Z,1696.00
2023-05-05T05:17:13.120Z,1695.00
2023-05-05T05:18:13.150Z,1686.00
2023-05-05T05:19:13.119Z,1688.00
2023-05-05T05:20:13.107Z,1675.00
2023-05-05T05:21:13.132Z,1689.00
2023-05-05T05:22:13.145Z,1679.00
2023-05-05T05:23:13.198Z,1666.00
2023-05-05T05:24:13.165Z,1662.00
2023-05-05T05:25:13.167Z,1663.00
2023-05-05T05:26:13.170Z,1650.00
2023-05-05T05:27:13.190Z,1650.00
2023-05-05T05:28:13.196Z,1631.00
2023-05-05T05:29:13.187Z,1636.00
2023-05-05T05:30:13.205Z,1634.00
2023-05-05T05:31:13.183Z,1631.00
2023-05-05T05:32:13.267Z,1617.00
2023-05-05T05:33:13.190Z,1616.00
2023-05-05T05:34:13.202Z,1617.00
2023-05-05T05:35:13.226Z,1631.00
2023-05-05T05:36:13.172Z,1684.00
2023-05-05T05:37:13.229Z,1670.00
2023-05-05T05:38:13.490Z,1658.00
2023-05-05T05:39:13.246Z,1636.00
2023-05-05T05:40:13.295Z,1632.00
2023-05-05T05:41:13.362Z,1647.00
2023-05-05T05:42:13.374Z,1646.00
2023-05-05T05:43:13.472Z,1634.00
2023-05-05T05:44:13.495Z,1642.00
2023-05-05T05:45:13.547Z,1635.00
2023-05-05T05:46:13.596Z,1639.00
2023-05-05T05:47:13.660Z,1745.00
2023-05-05T05:48:13.745Z,1845.00
2023-05-05T05:49:13.798Z,1775.00
2023-05-05T05:50:13.855Z,1724.00
2023-05-05T05:51:13.895Z,1765.00
2023-05-05T05:52:13.983Z,1781.00
2023-05-05T05:53:14.054Z,1780.00
2023-05-05T05:54:14.077Z,1819.00
2023-05-05T05:55:14.108Z,1797.00
2023-05-05T05:56:14.167Z,1789.00
2023-05-05T05:57:14.229Z,1811.00
2023-05-05T05:58:14.478Z,1799.00
2023-05-05T05:59:14.326Z,1796.00
2023-05-05T06:00:14.374Z,1790.00
2023-05-05T06:01:14.431Z,1784.00
2023-05-05T06:02:14.460Z,1793.00
2023-05-05T06:03:14.836Z,1815.00
2023-05-05T06:04:14.519Z,1798.00
2023-05-05T06:05:14.554Z,1804.00
2023-05-05T06:06:14.559Z,1802.00
2023-05-05T06:07:14.582Z,1801.00
2023-05-05T06:08:14.634Z,1756.00
2023-05-05T06:09:14.628Z,1769.00
2023-05-05T06:10:26.535Z,1800.00
2023-05-05T06:11:15.640Z,1801.00
2023-05-05T06:12:14.616Z,1768.00
2023-05-05T06:13:14.703Z,1693.00
2023-05-05T06:14:14.610Z,1620.00
2023-05-05T06:15:14.608Z,1610.00
2023-05-05T06:16:14.617Z,1542.00
2023-05-05T06:17:14.575Z,1576.00
2023-05-05T06:18:14.653Z,1606.00
2023-05-05T06:19:14.996Z,1616.00
2023-05-05T06:20:14.566Z,1606.00
2023-05-05T06:21:14.602Z,1543.00
2023-05-05T06:22:14.561Z,1403.00
2023-05-05T06:23:14.572Z,1327.00
2023-05-05T06:24:14.570Z,1237.00
2023-05-05T06:25:14.563Z,1284.00
2023-05-05T06:26:14.545Z,1281.00
2023-05-05T06:27:14.657Z,1210.00
2023-05-05T06:28:14.655Z,1276.00
2023-05-05T06:29:15.019Z,1199.00
2023-05-05T06:30:14.808Z,1115.00
2023-05-05T06:31:14.880Z,1203.00
2023-05-05T06:32:14.866Z,1047.00
2023-05-05T06:33:14.966Z,1034.00
2023-05-05T06:34:23.010Z,1006.00
2023-05-05T06:35:15.002Z,1010.00
2023-05-05T06:36:15.042Z,1020.00
2023-05-05T06:37:15.024Z,1040.00
2023-05-05T06:38:14.997Z,1066.00
2023-05-05T06:39:16.038Z,1144.00
2023-05-05T06:40:15.027Z,1149.00
2023-05-05T06:41:15.004Z,1214.00
2023-05-05T06:42:15.069Z,1203.00
2023-05-05T06:43:15.084Z,1263.00
2023-05-05T06:44:15.139Z,1236.00
2023-05-05T06:45:15.165Z,1297.00
2023-05-05T06:46:15.268Z,1257.00
2023-05-05T06:47:15.257Z,1317.00
2023-05-05T06:48:15.295Z,1130.00
2023-05-05T06:49:15.348Z,1256.00
2023-05-05T06:50:15.387Z,1145.00
2023-05-05T06:51:15.542Z,1182.00
2023-05-05T06:52:15.429Z,1051.00
2023-05-05T06:53:15.507Z,1166.00
2023-05-05T06:54:15.521Z,1033.00
2023-05-05T06:55:15.592Z,1234.00
2023-05-05T06:56:15.671Z,1265.00
2023-05-05T06:57:15.710Z,1298.00
2023-05-05T06:58:15.819Z,1367.00
2023-05-05T06:59:15.852Z,1371.00
2023-05-05T07:00:15.804Z,1391.00
2023-05-05T07:01:15.879Z,1307.00
2023-05-05T07:02:15.847Z,1355.00
2023-05-05T07:03:15.989Z,1382.00
2023-05-05T07:04:15.989Z,1377.00
2023-05-05T07:05:15.935Z,1363.00
2023-05-05T07:06:15.932Z,1272.00
2023-05-05T07:07:15.946Z,1303.00
2023-05-05T07:08:15.907Z,1299.00
2023-05-05T07:09:17.087Z,1275.00
2023-05-05T07:10:15.942Z,1249.00
2023-05-05T07:11:15.914Z,1251.00
2023-05-05T07:12:15.922Z,1206.00
2023-05-05T07:13:15.905Z,1213.00
2023-05-05T07:14:16.062Z,1190.00
2023-05-05T07:15:26.730Z,1136.00
2023-05-05T07:16:17.039Z,1137.00
2023-05-05T07:17:15.917Z,1138.00
2023-05-05T07:18:15.932Z,1120.00
2023-05-05T07:19:15.911Z,1036.00
2023-05-05T07:20:15.889Z,1103.00
2023-05-05T07:21:15.897Z,1151.00
2023-05-05T07:22:15.896Z,1028.00
2023-05-05T07:23:15.903Z,1104.00
2023-05-05T07:24:15.881Z,1139.00
2023-05-05T07:25:15.895Z,1165.00
2023-05-05T07:26:15.862Z,1145.00
2023-05-05T07:27:15.911Z,1120.00
2023-05-05T07:28:15.937Z,1142.00
2023-05-05T07:29:16.013Z,1108.00
2023-05-05T07:30:18.492Z,1060.00
2023-05-05T07:31:16.074Z,1074.00
2023-05-05T07:32:16.087Z,1087.00
2023-05-05T07:33:16.522Z,1088.00
2023-05-05T07:34:16.053Z,1098.00
2023-05-05T07:35:16.019Z,1082.00
2023-05-05T07:36:16.022Z,1120.00
2023-05-05T07:37:15.996Z,1084.00
2023-05-05T07:38:16.016Z,1066.00
2023-05-05T07:39:23.669Z,1075.00
2023-05-05T07:40:16.972Z,1078.00
2023-05-05T07:41:16.003Z,1080.00
2023-05-05T07:42:15.963Z,1077.00
2023-05-05T07:43:15.933Z,1076.00
2023-05-05T07:44:15.981Z,1079.00
2023-05-05T07:45:15.962Z,1069.00
2023-05-05T07:46:15.971Z,1059.00
2023-05-05T07:47:15.937Z,980.00
2023-05-05T07:48:15.931Z,1058.00
2023-05-05T07:49:15.973Z,1045.00
2023-05-05T07:50:15.963Z,1097.00
2023-05-05T07:51:15.900Z,791.00
2023-05-05T07:52:15.899Z,732.00
2023-05-05T07:53:15.915Z,931.00
2023-05-05T07:54:15.873Z,901.00
2023-05-05T07:55:15.907Z,749.00
2023-05-05T07:56:15.839Z,914.00
2023-05-05T07:57:15.873Z,832.00
2023-05-05T07:58:15.850Z,947.00
2023-05-05T07:59:15.885Z,830.00
2023-05-05T08:00:15.865Z,826.00
2023-05-05T08:01:15.845Z,719.00
2023-05-05T08:02:15.939Z,708.00
2023-05-05T08:03:15.884Z,610.00
2023-05-05T08:04:15.948Z,651.00
2023-05-05T08:05:15.880Z,648.00
2023-05-05T08:06:15.932Z,658.00
2023-05-05T08:07:15.955Z,585.00
2023-05-05T08:08:16.049Z,528.00
2023-05-05T08:09:16.101Z,587.00
2023-05-05T08:10:16.166Z,503.00
2023-05-05T08:11:16.195Z,594.00
2023-05-05T08:12:16.267Z,571.00
2023-05-05T08:13:16.470Z,621.00
2023-05-05T08:14:16.569Z,573.00
2023-05-05T08:15:16.556Z,579.00
2023-05-05T08:16:16.585Z,502.00
2023-05-05T08:17:16.631Z,618.00
2023-05-05T08:18:16.756Z,558.00
2023-05-05T08:19:28.210Z,607.00
2023-05-05T08:20:17.710Z,558.00
2023-05-05T08:21:16.703Z,532.00
2023-05-05T08:22:16.650Z,581.00
2023-05-05T08:23:16.699Z,556.00
2023-05-05T08:24:17.089Z,563.00
2023-05-05T08:25:16.632Z,565.00
2023-05-05T08:26:16.637Z,512.00
2023-05-05T08:27:16.651Z,521.00
2023-05-05T08:28:16.662Z,596.00
2023-05-05T08:29:17.068Z,589.00
2023-05-05T08:30:16.768Z,555.00
2023-05-05T08:31:16.878Z,583.00
2023-05-05T08:32:16.877Z,515.00
2023-05-05T08:33:16.982Z,525.00
2023-05-05T08:34:17.531Z,537.00
2023-05-05T08:35:17.064Z,552.00
2023-05-05T08:36:17.016Z,487.00
2023-05-05T08:37:17.095Z,600.00
2023-05-05T08:38:17.052Z,567.00
2023-05-05T08:39:17.245Z,563.00
2023-05-05T08:40:17.174Z,544.00
2023-05-05T08:41:17.233Z,589.00
2023-05-05T08:42:29.066Z,578.00
2023-05-05T08:43:18.265Z,579.00
2023-05-05T08:44:17.334Z,582.00
2023-05-05T08:45:17.216Z,580.00
2023-05-05T08:46:17.248Z,578.00
2023-05-05T08:47:17.182Z,574.00
2023-05-05T08:48:17.233Z,502.00
2023-05-05T08:49:17.216Z,598.00
2023-05-05T08:50:17.303Z,625.00
2023-05-05T08:51:17.204Z,623.00
2023-05-05T08:52:17.238Z,645.00
2023-05-05T08:53:17.212Z,643.00
2023-05-05T08:54:17.574Z,648.00
2023-05-05T08:55:17.298Z,650.00
2023-05-05T08:56:17.445Z,584.00
2023-05-05T08:57:17.368Z,608.00
2023-05-05T08:58:18.084Z,539.00
2023-05-05T08:59:17.591Z,607.00
2023-05-05T09:00:17.586Z,661.00
2023-05-05T09:01:17.770Z,592.00
2023-05-05T09:02:17.815Z,600.00
2023-05-05T09:03:17.789Z,647.00
2023-05-05T09:04:17.803Z,791.00
2023-05-05T09:05:17.861Z,864.00
2023-05-05T09:06:18.004Z,837.00
2023-05-05T09:07:24.952Z,1002.00
2023-05-05T09:08:17.868Z,942.00
2023-05-05T09:09:17.886Z,958.00
2023-05-05T09:10:17.833Z,975.00
2023-05-05T09:11:17.889Z,1021.00
2023-05-05T09:12:17.871Z,1030.00
2023-05-05T09:13:18.017Z,1099.00
2023-05-05T09:14:17.867Z,1148.00
2023-05-05T09:15:17.878Z,1059.00
2023-05-05T09:16:17.875Z,1124.00
2023-05-05T09:17:17.835Z,1059.00
2023-05-05T09:18:17.849Z,1059.00
2023-05-05T09:19:18.100Z,1182.00
2023-05-05T09:20:17.826Z,1134.00
2023-05-05T09:21:17.809Z,1233.00
2023-05-05T09:22:17.956Z,1253.00
2023-05-05T09:23:17.769Z,1239.00
2023-05-05T09:24:17.785Z,1278.00
2023-05-05T09:25:17.885Z,1304.00
2023-05-05T09:26:17.737Z,1263.00
2023-05-05T09:27:17.738Z,1248.00
2023-05-05T09:28:17.767Z,1253.00
2023-05-05T09:29:17.758Z,1241.00
2023-05-05T09:30:17.761Z,1254.00
2023-05-05T09:31:17.773Z,1324.00
2023-05-05T09:32:17.702Z,1333.00
2023-05-05T09:33:17.684Z,1371.00
2023-05-05T09:34:17.690Z,1414.00
2023-05-05T09:35:17.708Z,1284.00
2023-05-05T09:36:17.663Z,1282.00
2023-05-05T09:37:17.678Z,1402.00
2023-05-05T09:38:17.730Z,1389.00
2023-05-05T09:39:18.094Z,1402.00
2023-05-05T09:40:17.657Z,1365.00
2023-05-05T09:41:17.632Z,1399.00
2023-05-05T09:42:17.640Z,1449.00
2023-05-05T09:43:17.654Z,1423.00
2023-05-05T09:44:17.611Z,1450.00
2023-05-05T09:45:17.667Z,1510.00
2023-05-05T09:46:17.626Z,1424.00
2023-05-05T09:47:28.952Z,631.00
2023-05-05T09:48:18.622Z,635.00
2023-05-05T09:49:17.590Z,663.00
2023-05-05T09:50:17.607Z,841.00
2023-05-05T09:51:17.622Z,1147.00
2023-05-05T09:52:17.640Z,1595.00
2023-05-05T09:53:17.586Z,1815.00
2023-05-05T09:54:17.689Z,1892.00
2023-05-05T09:55:17.564Z,2008.00
2023-05-05T09:56:17.560Z,2092.00
2023-05-05T09:57:17.536Z,2163.00
2023-05-05T09:58:17.606Z,2186.00
2023-05-05T09:59:17.553Z,2224.00
2023-05-05T10:00:17.574Z,2235.00
2023-05-05T10:01:17.545Z,2248.00
2023-05-05T10:02:17.584Z,2233.00
2023-05-05T10:03:17.613Z,2223.00
2023-05-05T10:04:17.658Z,2250.00
2023-05-05T10:05:18.166Z,2223.00
2023-05-05T10:06:17.811Z,2257.00
2023-05-05T10:07:17.835Z,2275.00
2023-05-05T10:08:17.936Z,2263.00
2023-05-05T10:09:17.969Z,2263.00
2023-05-05T10:10:18.266Z,2283.00
2023-05-05T10:11:18.079Z,2267.00
2023-05-05T10:12:18.167Z,2286.00
2023-05-05T10:13:18.392Z,2321.00
2023-05-05T10:14:19.093Z,2351.00
2023-05-05T10:15:18.599Z,2353.00
2023-05-05T10:16:18.412Z,2334.00
2023-05-05T10:17:18.424Z,2316.00
2023-05-05T10:18:18.559Z,2338.00
2023-05-05T10:19:18.504Z,2287.00
2023-05-05T10:20:18.599Z,2282.00
2023-05-05T10:21:18.628Z,2310.00
2023-05-05T10:22:18.652Z,2284.00
2023-05-05T10:23:18.770Z,2262.00
2023-05-05T10:24:18.770Z,2306.00
2023-05-05T10:25:19.130Z,2326.00
2023-05-05T10:26:19.080Z,2334.00
2023-05-05T10:27:19.024Z,2336.00
2023-05-05T10:28:19.050Z,2252.00
2023-05-05T10:29:19.080Z,2257.00
2023-05-05T10:30:19.604Z,2274.00
2023-05-05T10:31:25.783Z,2295.00
2023-05-05T10:32:46.687Z,2297.00
2023-05-05T10:33:31.642Z,2298.00
2023-05-05T10:34:20.280Z,2298.00
2023-05-05T10:35:19.176Z,2306.00
2023-05-05T10:36:19.168Z,2289.00
2023-05-05T10:37:19.197Z,2281.00
2023-05-05T10:38:19.166Z,2240.00
2023-05-05T10:39:19.187Z,2238.00
2023-05-05T10:40:19.622Z,2191.00
2023-05-05T10:41:19.156Z,2096.00
2023-05-05T10:42:19.200Z,2157.00
2023-05-05T10:43:19.123Z,2106.00
2023-05-05T10:44:19.126Z,2062.00
2023-05-05T10:45:19.133Z,1989.00
2023-05-05T10:46:19.127Z,1973.00
2023-05-05T10:47:19.097Z,2025.00
2023-05-05T10:48:19.170Z,1982.00
2023-05-05T10:49:19.064Z,1964.00
2023-05-05T10:50:19.133Z,1937.00
2023-05-05T10:51:31.026Z,1932.00
2023-05-05T10:52:20.091Z,1932.00
2023-05-05T10:53:19.064Z,1900.00
2023-05-05T10:54:19.073Z,1794.00
2023-05-05T10:55:19.106Z,1821.00
2023-05-05T10:56:19.047Z,1763.00
2023-05-05T10:57:19.068Z,1700.00
2023-05-05T10:58:19.088Z,1639.00
2023-05-05T10:59:19.029Z,1646.00
2023-05-05T11:00:19.099Z,1553.00
2023-05-05T11:01:19.029Z,1508.00
2023-05-05T11:02:19.021Z,1478.00
2023-05-05T11:03:19.099Z,1415.00
2023-05-05T11:04:19.020Z,1437.00
2023-05-05T11:05:19.138Z,1357.00
2023-05-05T11:06:18.990Z,1320.00
2023-05-05T11:07:18.985Z,1302.00
2023-05-05T11:08:18.961Z,1267.00
2023-05-05T11:09:18.932Z,1242.00
2023-05-05T11:10:19.166Z,1130.00
2023-05-05T11:11:18.923Z,1041.00
2023-05-05T11:12:18.946Z,1058.00
2023-05-05T11:13:19.169Z,1071.00
2023-05-05T11:14:19.039Z,1052.00
2023-05-05T11:15:19.114Z,992.00
2023-05-05T11:16:19.032Z,933.00
2023-05-05T11:17:19.041Z,993.00
2023-05-05T11:18:19.068Z,892.00
2023-05-05T11:19:19.109Z,882.00
2023-05-05T11:20:19.649Z,865.00
2023-05-05T11:21:19.208Z,850.00
2023-05-05T11:22:19.195Z,831.00
2023-05-05T11:23:19.212Z,731.00
2023-05-05T11:24:19.250Z,803.00
2023-05-05T11:25:19.668Z,700.00
2023-05-05T11:26:19.329Z,684.00
2023-05-05T11:27:19.315Z,637.00
2023-05-05T11:28:19.431Z,623.00
2023-05-05T11:29:19.375Z,645.00
2023-05-05T11:30:19.502Z,626.00
2023-05-05T11:31:19.816Z,637.00
2023-05-05T11:32:19.582Z,627.00
2023-05-05T11:33:19.558Z,602.00
2023-05-05T11:34:19.576Z,597.00
2023-05-05T11:35:19.687Z,594.00
2023-05-05T11:36:19.643Z,583.00
2023-05-05T11:37:19.666Z,614.00
2023-05-05T11:38:19.807Z,624.00
2023-05-05T11:39:19.781Z,608.00
2023-05-05T11:40:19.783Z,631.00
2023-05-05T11:41:19.829Z,756.00
2023-05-05T11:42:19.832Z,685.00
2023-05-05T11:43:19.857Z,769.00
2023-05-05T11:44:19.860Z,883.00
2023-05-05T11:45:20.159Z,988.00
2023-05-05T11:46:20.065Z,1098.00
2023-05-05T11:47:19.953Z,1044.00
2023-05-05T11:48:19.998Z,1052.00
2023-05-05T11:49:19.957Z,1001.00
2023-05-05T11:50:19.951Z,1051.00
2023-05-05T11:51:19.966Z,1113.00
2023-05-05T11:52:19.967Z,1155.00
2023-05-05T11:53:20.006Z,1190.00
2023-05-05T11:54:20.029Z,1172.00
2023-05-05T11:55:20.046Z,1232.00
2023-05-05T11:56:20.095Z,1232.00
2023-05-05T11:57:20.149Z,1239.00
2023-05-05T11:58:20.144Z,1286.00
2023-05-05T11:59:20.210Z,1327.00
2023-05-05T12:00:20.220Z,1310.00
2023-05-05T12:01:20.235Z,1333.00
2023-05-05T12:02:20.409Z,1402.00
2023-05-05T12:03:20.387Z,1413.00
2023-05-05T12:04:20.310Z,1422.00
2023-05-05T12:05:20.658Z,1314.00
2023-05-05T12:06:20.316Z,1357.00
2023-05-05T12:07:20.376Z,1356.00
2023-05-05T12:08:20.412Z,1390.00
2023-05-05T12:09:20.498Z,1395.00